Skip to main content

NOAA/GLERL Met Station at Michigan City, IN

Previous 3 Hours (2 minute increments)
See also Previous 5 Days (top of hour)
Jump down to Data
Switch to [English][Metric]
Zoom: Click and drag, Pan: shift-click and drag, Unzoom: double-click, Unzoom All




See also 1-day windrose plot


NOAA/GLERL Met Station at Michigan City, IN

Previous 3 Hours (2 minute increments)
See also Previous 5 Days (top of hour only)
Jump up to Graphs
Switch to [English][Metric]
                  Wind  Wind  Wind   Air   Dew   Rel     Sta   PAR
                   Spd   Gst   Dir  Temp    Pt   Hum    Pres uE/m2/
YYYY-MM-DD   CDT   kts   kts   deg     F     F     %   in Hg   sec
2017-10-19 18:36   3.9   5.4   112  58.1  42.5  55.6    0.00     0
2017-10-19 18:34   3.7   4.5    75  58.6  41.0  51.6    0.00     0
2017-10-19 18:32   4.5   4.9    74  59.0  40.1  49.1    0.00     0
2017-10-19 18:30   4.9   5.2    76  59.2  40.1  48.8    0.00     0
2017-10-19 18:28   4.7   5.4    76  59.2  39.8  48.2    0.00     0
2017-10-19 18:26   3.3   3.9    86  59.2  40.0  48.6    0.00     0
2017-10-19 18:24   2.5   3.9   102  59.2  40.2  49.0    0.00     0
2017-10-19 18:22   2.5   2.7   139  58.6  40.0  49.5    0.00     0
2017-10-19 18:20   1.9   2.3   134  58.6  42.1  53.8    0.00     0
2017-10-19 18:18   2.5   3.5    77  59.0  39.0  47.0    0.00     0
2017-10-19 18:16   3.7   4.3    74  59.4  39.6  47.6    0.00     0
2017-10-19 18:14   3.7   3.9    77  59.4  39.4  47.1    0.00     0
2017-10-19 18:12   3.1   3.7    90  59.5  38.8  45.8    0.00     0
2017-10-19 18:10   2.5   2.9   100  59.4  39.2  46.8    0.00     0
2017-10-19 18:08   1.6   2.3   104  59.4  41.3  50.8    0.00     0
2017-10-19 18:06   0.6   1.2   100  59.2  42.1  52.8    0.00     0
2017-10-19 18:04   0.0   0.0     0  59.4  44.3  57.0    0.00     0
2017-10-19 18:02   0.8   1.4   166  59.4  43.8  56.0    0.00     0
2017-10-19 18:00   1.6   1.9   167  59.5  41.9  51.7    0.00     0
2017-10-19 17:58   1.6   1.7   153  59.7  40.0  47.6    0.00     0
2017-10-19 17:56   1.4   1.6   152  59.5  40.8  49.5    0.00     0
2017-10-19 17:54   1.2   1.6   142  59.5  41.9  51.7    0.00     0
2017-10-19 17:52   0.2   0.8   133  59.5  42.5  52.8    0.00     0
2017-10-19 17:50   0.2   0.6    68  59.4  42.4  53.0    0.00     0
2017-10-19 17:48   0.2   0.6    81  59.4  43.4  55.0    0.00     0
2017-10-19 17:46   0.0   0.0     0  59.4  42.6  53.5    0.00     0
2017-10-19 17:44   0.0   0.0     0  59.2  41.0  50.6    0.00     0
2017-10-19 17:42   0.4   0.6   120  59.2  42.4  53.4    0.00     0
2017-10-19 17:40   0.8   1.2   101  59.0  42.5  53.9    0.00     0
2017-10-19 17:38   1.0   1.4    91  59.0  43.6  56.3    0.00     0
2017-10-19 17:36   0.8   1.2    79  59.0  43.4  55.9    0.00     0
2017-10-19 17:34   1.6   2.1    65  58.8  42.2  53.7    0.00     0
2017-10-19 17:32   2.1   2.1    56  58.8  42.3  53.9    0.00     0
2017-10-19 17:30   2.1   2.3    52  59.0  40.8  50.4    0.00     0
2017-10-19 17:28   2.1   2.3    51  59.2  39.7  48.1    0.00     0
2017-10-19 17:26   1.9   2.1    48  59.2  39.9  48.4    0.00     0
2017-10-19 17:24   2.1   2.1    49  59.2  38.8  46.3    0.00     0
2017-10-19 17:22   1.9   2.1    49  59.4  39.2  46.8    0.00     0
2017-10-19 17:20   1.6   1.7    46  59.5  39.6  47.3    0.00     0
2017-10-19 17:18   1.7   1.9    47  59.5  39.7  47.4    0.00     0
2017-10-19 17:16   1.6   1.9    48  59.7  38.9  45.7    0.00     0
2017-10-19 17:14   1.0   1.4    74  59.9  37.7  43.3    0.00     0
2017-10-19 17:12   0.8   1.2    98  59.7  37.5  43.2    0.00     0
2017-10-19 17:10   1.0   1.2    88  59.7  36.4  41.3    0.00     0
2017-10-19 17:08   1.0   1.2    65  59.5  37.4  43.3    0.00     0
2017-10-19 17:06   1.0   1.2    54  59.5  38.8  45.7    0.00     0
2017-10-19 17:04   0.8   1.0    47  59.4  39.3  46.9    0.00     0
2017-10-19 17:02   1.6   1.7    45  59.4  40.5  49.3    0.00     0
2017-10-19 17:00   1.9   2.1    44  59.2  41.0  50.5    0.00     0
2017-10-19 16:58   1.6   1.9    50  59.4  40.1  48.5    0.00     0
2017-10-19 16:56   1.2   1.4    59  59.4  41.6  51.4    0.00     0
2017-10-19 16:54   1.4   1.6    58  59.4  42.1  52.3    0.00     0
2017-10-19 16:52   1.4   1.6    58  59.4  42.4  53.1    0.00     0
2017-10-19 16:50   1.4   1.4    50  59.2  41.4  51.4    0.00     0
2017-10-19 16:48   1.4   1.6    49  59.2  42.5  53.6    0.00     0
2017-10-19 16:46   1.6   1.9    46  59.0  43.3  55.6    0.00     0
2017-10-19 16:44   1.9   2.3    40  59.0  43.1  55.2    0.00     0
2017-10-19 16:42   2.1   2.5    37  59.0  42.8  54.5    0.00     0
2017-10-19 16:40   2.3   2.7    41  59.2  42.3  53.1    0.00     0
2017-10-19 16:38   2.1   2.3    40  59.0  42.2  53.3    0.00     0
2017-10-19 16:36   2.3   2.5    41  59.0  41.5  51.8    0.00     0
2017-10-19 16:34   2.5   2.9    34  59.0  42.8  54.5    0.00     0
2017-10-19 16:32   3.1   3.3    31  59.0  42.3  53.5    0.00     0
2017-10-19 16:30   3.3   3.5    29  59.0  42.5  54.0    0.00     0
2017-10-19 16:28   3.5   3.7    28  59.0  41.9  52.6    0.00     0
2017-10-19 16:26   2.9   3.3    26  59.0  42.6  54.1    0.00     0
2017-10-19 16:24   2.5   2.9    29  59.0  43.0  54.9    0.00     0
2017-10-19 16:22   2.9   3.3    27  59.0  41.5  51.9    0.00     0
2017-10-19 16:20   2.5   2.9    26  59.0  44.3  57.7    0.00     0
2017-10-19 16:18   2.9   3.5    25  59.0  42.6  54.1    0.00     0
2017-10-19 16:16   3.5   3.7    24  59.0  42.6  54.1    0.00     0
2017-10-19 16:14   3.5   3.7    21  59.0  43.0  54.9    0.00     0
2017-10-19 16:12   3.9   4.1    20  59.0  41.2  51.3    0.00     0
2017-10-19 16:10   3.3   3.7    18  59.2  41.7  52.0    0.00     0
2017-10-19 16:08   3.1   3.1    19  59.2  41.4  51.4    0.00     0
2017-10-19 16:06   2.9   3.3    12  59.4  41.9  52.0    0.00     0
2017-10-19 16:04   3.3   3.5    14  59.2  40.7  49.9    0.00     0
2017-10-19 16:02   3.1   3.5    14  59.4  40.7  49.7    0.00     0
2017-10-19 16:00   2.5   3.1    13  59.7  41.2  50.0    0.00     0
2017-10-19 15:58   3.3   3.9    10  59.7  39.3  46.4    0.00     0
2017-10-19 15:56   3.9   3.9    10  59.7  40.4  48.5    0.00     0
2017-10-19 15:54   3.7   3.9    11  59.7  40.2  48.0    0.00     0
2017-10-19 15:52   3.3   3.9    11  60.3  40.6  47.8    0.00     0
2017-10-19 15:50   2.7   3.1    10  61.2  41.8  48.5    0.00     0
2017-10-19 15:48   2.7   3.1     6  62.1  41.0  45.5    0.00     0
2017-10-19 15:46   2.7   3.1     5  62.1  42.3  48.0    0.00     0
2017-10-19 15:44   3.1   3.3     3  62.1  42.1  47.5    0.00     0
2017-10-19 15:42   3.1   3.5     4  61.5  42.0  48.2    0.00     0
2017-10-19 15:40   2.7   3.1     6  61.5  42.0  48.3    0.00     0
2017-10-19 15:38   3.1   3.5     5  61.7  42.4  48.8    0.00     0
2017-10-19 15:36   3.3   3.7     6  61.3  42.3  49.2    0.00     0